createdAt,value
2019-01-27T00:02:10.757Z,6.80
2019-01-27T00:04:39.089Z,6.80
2019-01-27T00:07:06.623Z,6.80
2019-01-27T00:09:34.288Z,6.90
2019-01-27T00:12:04.388Z,6.90
2019-01-27T00:14:31.929Z,6.80
2019-01-27T00:16:59.503Z,6.90
2019-01-27T00:19:27.040Z,6.90
2019-01-27T00:21:54.599Z,6.90
2019-01-27T00:24:22.131Z,6.90
2019-01-27T00:26:49.695Z,6.80
2019-01-27T00:29:17.231Z,6.80
2019-01-27T00:31:44.795Z,6.80
2019-01-27T00:34:12.326Z,6.90
2019-01-27T00:36:39.888Z,6.80
2019-01-27T00:39:07.426Z,6.70
2019-01-27T00:41:34.994Z,6.60
2019-01-27T00:44:02.535Z,6.70
2019-01-27T00:46:30.068Z,6.70
2019-01-27T00:48:58.580Z,6.50
2019-01-27T00:51:26.217Z,6.60
2019-01-27T00:53:53.776Z,6.70
2019-01-27T00:56:21.427Z,6.60
2019-01-27T00:58:49.002Z,6.50
2019-01-27T01:01:16.542Z,6.50
2019-01-27T01:03:44.083Z,6.60
2019-01-27T01:06:11.661Z,6.50
2019-01-27T01:08:39.191Z,6.60
2019-01-27T01:11:06.757Z,6.50
2019-01-27T01:13:34.296Z,6.50
2019-01-27T01:16:01.867Z,6.60
2019-01-27T01:18:29.570Z,6.60
2019-01-27T01:20:57.104Z,6.60
2019-01-27T01:23:24.668Z,6.60
2019-01-27T01:25:52.233Z,6.60
2019-01-27T01:28:19.793Z,6.70
2019-01-27T01:30:47.331Z,6.70
2019-01-27T01:33:14.948Z,6.70
2019-01-27T01:35:42.512Z,6.70
2019-01-27T01:38:10.075Z,6.70
2019-01-27T01:40:38.552Z,6.80
2019-01-27T01:43:06.096Z,6.80
2019-01-27T01:45:33.659Z,6.80
2019-01-27T01:48:01.199Z,6.80
2019-01-27T01:50:28.755Z,6.90
2019-01-27T01:52:56.320Z,6.90
2019-01-27T01:55:23.851Z,6.80
2019-01-27T01:57:51.515Z,6.80
2019-01-27T02:00:20.932Z,6.80
2019-01-27T02:02:48.474Z,6.80
2019-01-27T02:05:16.046Z,6.80
2019-01-27T02:07:43.580Z,6.80
2019-01-27T02:10:11.228Z,6.80
2019-01-27T02:12:38.799Z,6.80
2019-01-27T02:15:10.943Z,6.80
2019-01-27T02:17:39.487Z,6.80
2019-01-27T02:20:07.047Z,6.80
2019-01-27T02:22:34.584Z,6.90
2019-01-27T02:25:02.139Z,6.90
2019-01-27T02:27:30.694Z,6.90
2019-01-27T02:29:58.262Z,6.90
2019-01-27T02:32:25.800Z,7.00
2019-01-27T02:34:53.338Z,6.90
2019-01-27T02:37:20.905Z,6.90
2019-01-27T02:39:48.441Z,6.80
2019-01-27T02:42:16.776Z,6.90
2019-01-27T02:44:44.355Z,6.80
2019-01-27T02:47:11.891Z,6.90
2019-01-27T02:49:39.433Z,6.80
2019-01-27T02:52:07.989Z,6.80
2019-01-27T02:54:35.522Z,6.90
2019-01-27T02:57:03.089Z,6.90
2019-01-27T02:59:31.387Z,6.90
2019-01-27T03:01:58.962Z,6.90
2019-01-27T03:04:26.491Z,6.90
2019-01-27T03:06:54.062Z,6.90
2019-01-27T03:09:21.624Z,6.90
2019-01-27T03:11:49.169Z,7.00
2019-01-27T03:14:16.736Z,7.00
2019-01-27T03:16:44.300Z,7.10
2019-01-27T03:19:11.864Z,7.10
2019-01-27T03:21:39.400Z,7.10
2019-01-27T03:24:06.955Z,7.10
2019-01-27T03:26:34.488Z,7.00
2019-01-27T03:29:02.052Z,7.00
2019-01-27T03:31:29.593Z,7.10
2019-01-27T03:33:57.901Z,7.10
2019-01-27T03:36:25.456Z,7.00
2019-01-27T03:38:52.992Z,7.10
2019-01-27T03:41:20.554Z,7.10
2019-01-27T03:43:48.114Z,7.10
2019-01-27T03:46:16.423Z,7.10
2019-01-27T03:48:43.988Z,7.10
2019-01-27T03:51:11.557Z,7.20
2019-01-27T03:53:39.098Z,7.30
2019-01-27T03:56:06.670Z,7.30
2019-01-27T03:58:34.222Z,7.30
2019-01-27T04:01:01.771Z,7.30
2019-01-27T04:03:29.339Z,7.30
2019-01-27T04:05:56.908Z,7.30
2019-01-27T04:08:24.473Z,7.30
2019-01-27T04:10:52.013Z,7.30
2019-01-27T04:13:20.636Z,7.30
2019-01-27T04:15:48.944Z,7.30
2019-01-27T04:18:16.512Z,7.20
2019-01-27T04:20:44.048Z,7.20
2019-01-27T04:23:11.600Z,7.20
2019-01-27T04:25:39.145Z,7.30
2019-01-27T04:28:07.454Z,7.40
2019-01-27T04:30:35.020Z,7.40
2019-01-27T04:33:02.575Z,7.40
2019-01-27T04:35:30.116Z,7.40
2019-01-27T04:37:57.652Z,7.40
2019-01-27T04:40:25.979Z,7.40
2019-01-27T04:42:53.513Z,7.30
2019-01-27T04:45:21.797Z,7.40
2019-01-27T04:47:49.329Z,7.40
2019-01-27T04:50:16.904Z,7.50
2019-01-27T04:52:44.435Z,7.50
2019-01-27T04:55:14.035Z,7.60
2019-01-27T04:57:41.566Z,7.60
2019-01-27T05:00:09.149Z,7.60
2019-01-27T05:02:36.694Z,7.60
2019-01-27T05:05:04.232Z,7.50
2019-01-27T05:07:31.791Z,7.50
2019-01-27T05:09:59.323Z,7.40
2019-01-27T05:12:26.893Z,7.30
2019-01-27T05:14:54.435Z,7.20
2019-01-27T05:17:22.008Z,7.10
2019-01-27T05:19:49.536Z,7.10
2019-01-27T05:22:17.096Z,7.00
2019-01-27T05:24:44.638Z,6.90
2019-01-27T05:27:12.211Z,6.90
2019-01-27T05:29:39.781Z,6.90
2019-01-27T05:32:07.314Z,6.80
2019-01-27T05:34:34.876Z,6.80
2019-01-27T05:37:02.442Z,6.60
2019-01-27T05:39:30.011Z,6.60
2019-01-27T05:41:57.965Z,6.50
2019-01-27T05:44:25.521Z,6.60
2019-01-27T05:46:53.080Z,6.60
2019-01-27T05:49:20.618Z,6.50
2019-01-27T05:51:48.189Z,6.60
2019-01-27T05:54:15.715Z,6.50
2019-01-27T05:56:43.247Z,6.50
2019-01-27T05:59:10.803Z,6.60
2019-01-27T06:01:38.368Z,6.60
2019-01-27T06:04:05.932Z,6.60
2019-01-27T06:06:33.479Z,6.70
2019-01-27T06:09:01.041Z,6.70
2019-01-27T06:11:28.597Z,6.60
2019-01-27T06:13:56.136Z,6.60
2019-01-27T06:16:23.695Z,6.70
2019-01-27T06:18:51.228Z,6.70
2019-01-27T06:21:18.769Z,6.70
2019-01-27T06:23:46.420Z,6.70
2019-01-27T06:26:13.960Z,6.70
2019-01-27T06:28:42.280Z,6.70
2019-01-27T06:31:09.818Z,6.60
2019-01-27T06:33:38.291Z,6.70
2019-01-27T06:36:05.844Z,6.80
2019-01-27T06:38:33.411Z,6.80
2019-01-27T06:41:00.952Z,6.80
2019-01-27T06:43:29.464Z,6.70
2019-01-27T06:45:57.003Z,6.70
2019-01-27T06:48:24.644Z,6.70
2019-01-27T06:50:52.200Z,6.70
2019-01-27T06:53:20.500Z,6.60
2019-01-27T06:55:48.064Z,6.60
2019-01-27T06:58:15.593Z,6.70
2019-01-27T07:00:45.663Z,6.80
2019-01-27T07:03:16.108Z,6.80
2019-01-27T07:06:00.463Z,7.00
2019-01-27T07:08:29.823Z,6.90
2019-01-27T07:13:57.103Z,7.00
2019-01-27T07:16:25.624Z,6.90
2019-01-27T07:19:08.916Z,6.80
2019-01-27T07:21:42.179Z,6.80
2019-01-27T07:24:26.436Z,6.80
2019-01-27T07:26:56.795Z,6.80
2019-01-27T07:29:29.881Z,6.80
2019-01-27T07:32:12.332Z,6.80
2019-01-27T07:34:40.523Z,6.90
2019-01-27T07:37:13.820Z,6.90
2019-01-27T07:39:43.002Z,7.00
2019-01-27T07:42:18.029Z,7.10
2019-01-27T07:44:46.321Z,7.20
2019-01-27T07:47:29.466Z,7.20
2019-01-27T07:50:02.712Z,7.20
2019-01-27T07:52:32.091Z,7.20
2019-01-27T07:55:12.235Z,7.20
2019-01-27T07:57:52.471Z,7.20
2019-01-27T08:00:29.947Z,7.20
2019-01-27T08:02:58.300Z,7.30
2019-01-27T08:05:25.867Z,7.40
2019-01-27T08:08:08.296Z,7.40
2019-01-27T08:10:45.776Z,7.40
2019-01-27T08:13:31.996Z,7.50
2019-01-27T08:15:59.558Z,7.60
2019-01-27T08:18:27.087Z,7.50
2019-01-27T08:20:58.501Z,7.60
2019-01-27T08:23:33.715Z,7.60
2019-01-27T08:26:05.881Z,7.60
2019-01-27T08:28:35.221Z,7.70
2019-01-27T08:31:03.592Z,7.80
2019-01-27T08:33:32.060Z,7.80
2019-01-27T08:35:59.604Z,7.80
2019-01-27T08:38:28.072Z,7.90
2019-01-27T08:40:55.609Z,7.80
2019-01-27T08:43:28.867Z,7.80
2019-01-27T08:45:56.404Z,7.90
2019-01-27T08:48:23.970Z,7.90
2019-01-27T08:50:51.512Z,7.90
2019-01-27T08:53:19.177Z,7.90
2019-01-27T08:55:46.807Z,7.90
2019-01-27T08:58:14.335Z,7.90
2019-01-27T09:00:41.895Z,8.00
2019-01-27T09:03:10.364Z,8.00
2019-01-27T09:05:37.927Z,8.00
2019-01-27T09:08:05.972Z,7.90
2019-01-27T09:10:35.109Z,7.60
2019-01-27T09:13:12.586Z,7.60
2019-01-27T09:15:41.015Z,7.60
2019-01-27T09:18:23.456Z,7.70
2019-01-27T09:23:45.291Z,7.70
2019-01-27T09:29:11.636Z,7.70
2019-01-27T09:31:54.044Z,7.70
2019-01-27T09:34:33.421Z,7.70
2019-01-27T09:37:05.819Z,7.80
2019-01-27T09:39:39.048Z,7.70
2019-01-27T09:42:23.412Z,7.80
2019-01-27T09:44:55.471Z,7.80
2019-01-27T09:47:37.913Z,7.90
2019-01-27T09:50:05.960Z,7.90
2019-01-27T09:52:34.265Z,7.80
2019-01-27T09:55:17.384Z,7.80
2019-01-27T09:57:46.588Z,7.90
2019-01-27T10:00:14.122Z,8.00
2019-01-27T10:02:41.687Z,8.20
2019-01-27T10:05:13.767Z,8.40
2019-01-27T10:07:41.295Z,8.40
2019-01-27T10:10:11.463Z,8.40
2019-01-27T10:12:39.020Z,8.50
2019-01-27T10:15:27.264Z,8.70
2019-01-27T10:17:59.527Z,9.00
2019-01-27T10:20:45.688Z,9.10
2019-01-27T10:23:23.167Z,8.80
2019-01-27T10:25:51.552Z,9.00
2019-01-27T10:28:21.755Z,8.80
2019-01-27T10:30:57.762Z,8.70
2019-01-27T10:33:26.191Z,8.60
2019-01-27T10:35:53.730Z,8.00
2019-01-27T10:41:18.720Z,8.10
2019-01-27T10:44:03.103Z,8.10
2019-01-27T10:49:41.896Z,7.80
2019-01-27T10:52:15.109Z,7.80
2019-01-27T10:54:42.667Z,7.90
2019-01-27T10:57:13.112Z,8.00
2019-01-27T10:59:44.181Z,7.90
2019-01-27T11:02:36.527Z,8.00
2019-01-27T11:05:07.727Z,8.20
2019-01-27T11:07:50.174Z,8.10
2019-01-27T11:10:19.113Z,8.20
2019-01-27T11:13:01.559Z,7.90
2019-01-27T11:15:29.621Z,8.00
2019-01-27T11:18:12.972Z,8.10
2019-01-27T11:20:43.152Z,8.20
2019-01-27T11:23:14.248Z,7.90
2019-01-27T11:25:46.759Z,7.80
2019-01-27T11:28:14.315Z,7.80
2019-01-27T11:33:38.705Z,8.00
2019-01-27T11:36:10.690Z,7.90
2019-01-27T11:38:38.852Z,7.90
2019-01-27T11:44:03.540Z,8.10
2019-01-27T11:46:43.720Z,8.00
2019-01-27T11:49:11.912Z,8.00
2019-01-27T11:51:39.447Z,7.90
2019-01-27T11:54:07.771Z,7.80
2019-01-27T11:56:35.307Z,7.80
2019-01-27T11:59:02.868Z,7.80
2019-01-27T12:01:30.841Z,7.80
2019-01-27T12:03:58.909Z,7.90
2019-01-27T12:06:26.489Z,8.10
2019-01-27T12:08:54.129Z,8.20
2019-01-27T12:11:21.679Z,8.20
2019-01-27T12:13:49.243Z,8.30
2019-01-27T12:16:16.821Z,8.20
2019-01-27T12:18:44.375Z,8.20
2019-01-27T12:21:11.919Z,8.10
2019-01-27T12:23:39.488Z,8.30
2019-01-27T12:26:07.047Z,8.10
2019-01-27T12:28:34.613Z,8.20
2019-01-27T12:31:02.156Z,8.10
2019-01-27T12:33:29.707Z,8.20
2019-01-27T12:35:57.267Z,8.50
2019-01-27T12:38:24.801Z,8.80
2019-01-27T12:40:52.335Z,8.70
2019-01-27T12:43:20.880Z,8.50
2019-01-27T12:45:48.714Z,8.50
2019-01-27T12:48:16.246Z,8.50
2019-01-27T12:50:43.811Z,8.60
2019-01-27T12:53:11.352Z,8.60
2019-01-27T12:55:39.654Z,8.60
2019-01-27T12:58:07.216Z,8.60
2019-01-27T13:00:34.747Z,8.90
2019-01-27T13:03:02.304Z,8.80
2019-01-27T13:05:29.860Z,8.60
2019-01-27T13:07:58.186Z,8.50
2019-01-27T13:10:25.754Z,8.50
2019-01-27T13:12:54.327Z,8.60
2019-01-27T13:15:21.855Z,8.70
2019-01-27T13:17:49.383Z,8.60
2019-01-27T13:20:16.948Z,8.30
2019-01-27T13:22:44.484Z,8.40
2019-01-27T13:25:14.416Z,8.50
2019-01-27T13:27:41.952Z,8.50
2019-01-27T13:30:12.188Z,8.50
2019-01-27T13:32:39.752Z,8.60
2019-01-27T13:35:07.291Z,8.60
2019-01-27T13:37:35.619Z,8.60
2019-01-27T13:40:03.155Z,8.60
2019-01-27T13:42:30.721Z,8.70
2019-01-27T13:44:58.268Z,8.70
2019-01-27T13:47:26.811Z,8.70
2019-01-27T13:49:54.341Z,8.50
2019-01-27T13:52:21.875Z,8.70
2019-01-27T13:54:49.432Z,8.50
2019-01-27T13:57:16.964Z,8.50
2019-01-27T13:59:44.533Z,8.50
2019-01-27T14:02:12.076Z,8.50
2019-01-27T14:04:39.612Z,8.50
2019-01-27T14:07:07.178Z,8.50
2019-01-27T14:09:34.712Z,8.40
2019-01-27T14:12:02.272Z,8.40
2019-01-27T14:14:31.595Z,8.50
2019-01-27T14:16:59.144Z,8.40
2019-01-27T14:19:26.783Z,8.50
2019-01-27T14:21:54.360Z,8.50
2019-01-27T14:24:21.899Z,8.60
2019-01-27T14:26:49.489Z,8.60
2019-01-27T14:29:17.040Z,8.50
2019-01-27T14:31:44.610Z,8.70
2019-01-27T14:34:12.153Z,8.70
2019-01-27T14:36:39.720Z,8.40
2019-01-27T14:39:07.262Z,8.20
2019-01-27T14:41:35.613Z,8.30
2019-01-27T14:44:03.146Z,8.20
2019-01-27T14:46:30.719Z,8.00
2019-01-27T14:48:58.287Z,7.80
2019-01-27T14:51:25.828Z,7.80
2019-01-27T14:53:53.408Z,7.60
2019-01-27T14:56:20.953Z,7.70
2019-01-27T14:58:48.690Z,7.60
2019-01-27T15:01:16.232Z,7.70
2019-01-27T15:03:43.788Z,7.70
2019-01-27T15:06:11.460Z,7.70
2019-01-27T15:08:39.046Z,7.60
2019-01-27T15:11:06.591Z,7.50
2019-01-27T15:13:34.155Z,7.50
2019-01-27T15:16:01.691Z,7.60
2019-01-27T15:18:29.250Z,7.40
2019-01-27T15:20:56.807Z,7.30
2019-01-27T15:23:24.871Z,7.20
2019-01-27T15:25:52.941Z,7.10
2019-01-27T15:28:20.512Z,7.10
2019-01-27T15:30:48.656Z,7.10
2019-01-27T15:33:16.243Z,7.00
2019-01-27T15:35:43.815Z,7.10
2019-01-27T15:38:11.348Z,7.00
2019-01-27T15:40:38.919Z,6.90
2019-01-27T15:43:06.455Z,6.70
2019-01-27T15:45:34.000Z,6.60
2019-01-27T15:48:01.568Z,6.70
2019-01-27T15:50:29.903Z,6.70
2019-01-27T15:52:58.237Z,6.70
2019-01-27T15:55:25.775Z,6.70
2019-01-27T15:57:53.310Z,6.80
2019-01-27T16:00:24.384Z,6.80
2019-01-27T16:02:51.921Z,7.00
2019-01-27T16:05:19.485Z,6.70
2019-01-27T16:07:48.000Z,6.60
2019-01-27T16:10:15.536Z,6.50
2019-01-27T16:12:43.067Z,6.40
2019-01-27T16:15:12.084Z,6.20
2019-01-27T16:17:39.616Z,6.20
2019-01-27T16:20:07.176Z,6.10
2019-01-27T16:22:34.714Z,6.10
2019-01-27T16:25:02.280Z,6.00
2019-01-27T16:27:29.818Z,6.00
2019-01-27T16:29:57.382Z,6.10
2019-01-27T16:32:24.916Z,6.10
2019-01-27T16:34:52.487Z,6.10
2019-01-27T16:37:20.052Z,6.00
2019-01-27T16:39:47.586Z,6.00
2019-01-27T16:42:15.153Z,6.10
2019-01-27T16:44:42.689Z,5.80
2019-01-27T16:47:10.249Z,5.50
2019-01-27T16:49:37.775Z,5.50
2019-01-27T16:52:05.345Z,5.40
2019-01-27T16:54:32.884Z,5.30
2019-01-27T16:57:01.394Z,5.30
2019-01-27T16:59:29.539Z,5.30
2019-01-27T17:01:59.001Z,5.40
2019-01-27T17:04:25.675Z,5.30
2019-01-27T17:06:53.214Z,5.30
2019-01-27T17:09:20.771Z,5.40
2019-01-27T17:11:48.314Z,5.40
2019-01-27T17:14:15.881Z,5.40
2019-01-27T17:16:43.419Z,5.50
2019-01-27T17:19:11.747Z,5.50
2019-01-27T17:21:39.284Z,5.50
2019-01-27T17:24:06.848Z,5.50
2019-01-27T17:26:34.395Z,5.50
2019-01-27T17:29:01.979Z,5.50
2019-01-27T17:31:29.523Z,5.50
2019-01-27T17:33:57.071Z,5.50
2019-01-27T17:36:24.637Z,5.50
2019-01-27T17:38:52.184Z,5.30
2019-01-27T17:41:19.759Z,5.30
2019-01-27T17:43:47.292Z,5.30
2019-01-27T17:46:14.849Z,5.30
2019-01-27T17:48:42.387Z,5.30
2019-01-27T17:51:09.945Z,5.20
2019-01-27T17:53:38.256Z,5.10
2019-01-27T17:56:05.791Z,5.10
2019-01-27T17:58:34.187Z,5.10
2019-01-27T18:04:01.863Z,5.10
2019-01-27T18:06:29.435Z,5.10
2019-01-27T18:09:12.755Z,5.10
2019-01-27T18:11:43.042Z,5.10
2019-01-27T18:14:11.361Z,5.20
2019-01-27T18:16:38.938Z,5.20
2019-01-27T18:19:06.469Z,5.20
2019-01-27T18:21:34.031Z,5.20
2019-01-27T18:24:01.588Z,5.20
2019-01-27T18:26:29.147Z,5.20
2019-01-27T18:28:56.724Z,5.20
2019-01-27T18:31:24.263Z,5.20
2019-01-27T18:33:51.826Z,5.10
2019-01-27T18:36:19.394Z,5.00
2019-01-27T18:38:46.951Z,4.90
2019-01-27T18:41:14.494Z,4.90
2019-01-27T18:43:42.032Z,4.90
2019-01-27T18:46:09.592Z,4.80
2019-01-27T18:48:37.138Z,4.80
2019-01-27T18:51:04.711Z,4.90
2019-01-27T18:53:45.976Z,4.90
2019-01-27T18:56:24.193Z,4.90
2019-01-27T18:58:55.539Z,5.00
2019-01-27T19:01:28.675Z,5.00
2019-01-27T19:07:00.519Z,5.10
2019-01-27T19:09:30.703Z,5.00
2019-01-27T19:12:00.903Z,5.00
2019-01-27T19:14:39.119Z,4.80
2019-01-27T19:17:22.567Z,4.80
2019-01-27T19:19:51.852Z,4.80
2019-01-27T19:22:35.259Z,4.80
2019-01-27T19:25:03.568Z,4.80
2019-01-27T19:27:48.939Z,4.80
2019-01-27T19:30:18.204Z,4.80
2019-01-27T19:33:06.207Z,4.70
2019-01-27T19:38:29.772Z,4.80
2019-01-27T19:40:58.175Z,4.90
2019-01-27T19:43:25.742Z,4.80
2019-01-27T19:45:53.301Z,4.80
2019-01-27T19:48:38.638Z,4.60
2019-01-27T19:51:06.691Z,4.60
2019-01-27T19:53:50.932Z,4.50
2019-01-27T19:56:26.052Z,4.40
2019-01-27T19:59:08.522Z,4.40
2019-01-27T20:01:42.910Z,4.30
2019-01-27T20:04:11.394Z,4.10
2019-01-27T20:06:44.675Z,3.70
2019-01-27T20:09:28.313Z,3.70
2019-01-27T20:15:04.780Z,3.80
2019-01-27T20:17:34.855Z,4.00
2019-01-27T20:20:14.255Z,3.90
2019-01-27T20:22:51.733Z,4.00
2019-01-27T20:25:29.205Z,4.10
2019-01-27T20:27:57.911Z,4.00
2019-01-27T20:30:32.075Z,3.90
2019-01-27T20:33:04.161Z,4.00
2019-01-27T20:35:45.443Z,4.20
2019-01-27T20:38:13.620Z,4.30
2019-01-27T20:40:58.840Z,4.10
2019-01-27T20:43:30.031Z,4.20
2019-01-27T20:45:58.187Z,4.30
2019-01-27T20:48:39.910Z,4.10
2019-01-27T20:51:18.140Z,3.70
2019-01-27T20:53:46.311Z,3.30
2019-01-27T20:56:27.628Z,3.20
2019-01-27T20:59:10.076Z,3.10
2019-01-27T21:01:43.225Z,3.10
2019-01-27T21:04:16.729Z,3.20
2019-01-27T21:06:46.713Z,3.10
2019-01-27T21:09:33.103Z,3.20
2019-01-27T21:14:59.842Z,2.80
2019-01-27T21:17:44.174Z,2.90
2019-01-27T21:20:11.844Z,2.70
2019-01-27T21:22:39.385Z,2.80
2019-01-27T21:25:07.943Z,2.90
2019-01-27T21:27:35.486Z,2.90
2019-01-27T21:30:03.047Z,2.70
2019-01-27T21:32:30.586Z,2.70
2019-01-27T21:34:58.149Z,2.50
2019-01-27T21:37:25.688Z,2.60
2019-01-27T21:39:53.240Z,2.60
2019-01-27T21:42:20.807Z,2.60
2019-01-27T21:44:48.352Z,2.70
2019-01-27T21:47:15.913Z,2.70
2019-01-27T21:49:43.552Z,2.70
2019-01-27T21:52:11.128Z,2.60
2019-01-27T21:54:38.667Z,2.50
2019-01-27T21:57:06.229Z,2.50
2019-01-27T21:59:33.774Z,2.50
2019-01-27T22:02:02.284Z,2.50
2019-01-27T22:04:29.820Z,2.60
2019-01-27T22:06:57.452Z,2.80
2019-01-27T22:09:25.039Z,2.80
2019-01-27T22:11:52.576Z,2.80
2019-01-27T22:14:20.138Z,2.80
2019-01-27T22:16:47.675Z,3.00
2019-01-27T22:19:15.245Z,2.90
2019-01-27T22:21:42.789Z,2.90
2019-01-27T22:24:10.401Z,2.80
2019-01-27T22:26:37.926Z,2.80
2019-01-27T22:29:05.489Z,2.60
2019-01-27T22:31:33.031Z,2.70
2019-01-27T22:34:00.591Z,2.60
2019-01-27T22:36:28.168Z,2.70
2019-01-27T22:38:55.700Z,2.70
2019-01-27T22:41:23.270Z,2.60
2019-01-27T22:43:50.804Z,2.70
2019-01-27T22:46:18.374Z,2.70
2019-01-27T22:48:45.920Z,2.60
2019-01-27T22:51:13.489Z,2.60
2019-01-27T22:53:41.019Z,2.60
2019-01-27T22:56:09.702Z,2.50
2019-01-27T22:58:37.303Z,2.50
2019-01-27T23:01:04.841Z,2.60
2019-01-27T23:03:32.400Z,2.70
2019-01-27T23:05:59.940Z,2.60
2019-01-27T23:08:28.480Z,2.70
2019-01-27T23:10:56.012Z,2.70
2019-01-27T23:13:23.576Z,2.90
2019-01-27T23:15:51.538Z,2.90
2019-01-27T23:18:19.140Z,2.90
2019-01-27T23:20:46.698Z,2.90
2019-01-27T23:23:14.232Z,2.80
2019-01-27T23:25:41.796Z,2.80
2019-01-27T23:28:09.332Z,2.80
2019-01-27T23:30:37.881Z,2.80
2019-01-27T23:33:05.411Z,2.80
2019-01-27T23:35:32.976Z,2.70
2019-01-27T23:38:01.271Z,2.70
2019-01-27T23:40:28.816Z,2.70
2019-01-27T23:42:57.535Z,2.80
2019-01-27T23:45:25.172Z,2.70
2019-01-27T23:47:52.735Z,2.80
2019-01-27T23:50:20.275Z,2.70
2019-01-27T23:52:47.839Z,2.70
2019-01-27T23:55:15.615Z,2.80
2019-01-27T23:57:43.156Z,2.70
